sensor_id;sensor_type;location;lat;lon;timestamp;pressure;altitude;pressure_sealevel;temperature;humidity
13348;BME280;6743;49.934;9.138;2022-08-21T00:00:31;100492.66;;;18.33;100.00
13348;BME280;6743;49.934;9.138;2022-08-21T00:02:59;100498.69;;;18.28;100.00
13348;BME280;6743;49.934;9.138;2022-08-21T00:05:27;100493.12;;;18.23;100.00
13348;BME280;6743;49.934;9.138;2022-08-21T00:07:54;100492.50;;;18.21;100.00
13348;BME280;6743;49.934;9.138;2022-08-21T00:10:21;100489.81;;;18.21;100.00
13348;BME280;6743;49.934;9.138;2022-08-21T00:12:48;100483.22;;;18.17;100.00
13348;BME280;6743;49.934;9.138;2022-08-21T00:15:18;100492.69;;;18.13;100.00
13348;BME280;6743;49.934;9.138;2022-08-21T00:17:46;100483.00;;;18.12;100.00
13348;BME280;6743;49.934;9.138;2022-08-21T00:20:14;100482.59;;;18.08;100.00
13348;BME280;6743;49.934;9.138;2022-08-21T00:22:42;100477.22;;;18.02;100.00
13348;BME280;6743;49.934;9.138;2022-08-21T00:25:09;100477.44;;;18.00;100.00
13348;BME280;6743;49.934;9.138;2022-08-21T00:27:36;100476.41;;;18.01;100.00
13348;BME280;6743;49.934;9.138;2022-08-21T00:30:04;100478.06;;;17.96;100.00
13348;BME280;6743;49.934;9.138;2022-08-21T00:32:30;100466.91;;;17.86;100.00
13348;BME280;6743;49.934;9.138;2022-08-21T00:34:57;100475.38;;;17.89;100.00
13348;BME280;6743;49.934;9.138;2022-08-21T00:37:23;100470.41;;;17.86;100.00
13348;BME280;6743;49.934;9.138;2022-08-21T00:39:49;100472.28;;;17.79;100.00
13348;BME280;6743;49.934;9.138;2022-08-21T00:42:16;100471.25;;;17.74;100.00
13348;BME280;6743;49.934;9.138;2022-08-21T00:44:43;100465.47;;;17.70;100.00
13348;BME280;6743;49.934;9.138;2022-08-21T00:47:10;100470.63;;;17.65;100.00
13348;BME280;6743;49.934;9.138;2022-08-21T00:49:37;100460.09;;;17.63;100.00
13348;BME280;6743;49.934;9.138;2022-08-21T00:52:06;100466.50;;;17.62;100.00
13348;BME280;6743;49.934;9.138;2022-08-21T00:54:33;100460.91;;;17.64;100.00
13348;BME280;6743;49.934;9.138;2022-08-21T00:57:03;100465.44;;;17.63;100.00
13348;BME280;6743;49.934;9.138;2022-08-21T00:59:33;100450.37;;;17.56;100.00
13348;BME280;6743;49.934;9.138;2022-08-21T01:02:03;100460.06;;;17.57;100.00
13348;BME280;6743;49.934;9.138;2022-08-21T01:04:30;100460.47;;;17.54;100.00
13348;BME280;6743;49.934;9.138;2022-08-21T01:06:56;100469.16;;;17.49;100.00
13348;BME280;6743;49.934;9.138;2022-08-21T01:09:23;100468.72;;;17.46;100.00
13348;BME280;6743;49.934;9.138;2022-08-21T01:11:49;100467.69;;;17.40;100.00
13348;BME280;6743;49.934;9.138;2022-08-21T01:14:16;100464.56;;;17.37;100.00
13348;BME280;6743;49.934;9.138;2022-08-21T01:16:46;100465.59;;;17.36;100.00
13348;BME280;6743;49.934;9.138;2022-08-21T01:19:13;100455.50;;;17.38;100.00
13348;BME280;6743;49.934;9.138;2022-08-21T01:21:41;100469.34;;;17.35;100.00
13348;BME280;6743;49.934;9.138;2022-08-21T01:24:07;100463.13;;;17.34;100.00
13348;BME280;6743;49.934;9.138;2022-08-21T01:26:35;100461.47;;;17.33;100.00
13348;BME280;6743;49.934;9.138;2022-08-21T01:29:05;100464.34;;;17.31;100.00
13348;BME280;6743;49.934;9.138;2022-08-21T01:31:33;100457.13;;;17.25;100.00
13348;BME280;6743;49.934;9.138;2022-08-21T01:34:00;100465.56;;;17.22;100.00
13348;BME280;6743;49.934;9.138;2022-08-21T01:36:26;100462.88;;;17.22;100.00
13348;BME280;6743;49.934;9.138;2022-08-21T01:38:53;100451.53;;;17.07;100.00
13348;BME280;6743;49.934;9.138;2022-08-21T01:41:19;100459.59;;;17.14;100.00
13348;BME280;6743;49.934;9.138;2022-08-21T01:43:45;100474.22;;;17.11;100.00
13348;BME280;6743;49.934;9.138;2022-08-21T01:46:11;100470.91;;;17.09;100.00
13348;BME280;6743;49.934;9.138;2022-08-21T01:48:38;100465.34;;;17.11;100.00
13348;BME280;6743;49.934;9.138;2022-08-21T01:51:05;100465.34;;;17.11;100.00
13348;BME280;6743;49.934;9.138;2022-08-21T01:53:32;100476.06;;;17.11;100.00
13348;BME280;6743;49.934;9.138;2022-08-21T01:56:00;100467.00;;;17.12;100.00
13348;BME280;6743;49.934;9.138;2022-08-21T01:58:26;100466.56;;;17.08;100.00
13348;BME280;6743;49.934;9.138;2022-08-21T02:01:09;100465.13;;;17.06;100.00
13348;BME280;6743;49.934;9.138;2022-08-21T02:03:35;100464.09;;;17.00;100.00
13348;BME280;6743;49.934;9.138;2022-08-21T02:06:02;100462.22;;;16.94;100.00
13348;BME280;6743;49.934;9.138;2022-08-21T02:08:28;100458.06;;;16.91;100.00
13348;BME280;6743;49.934;9.138;2022-08-21T02:10:55;100457.63;;;16.88;100.00
13348;BME280;6743;49.934;9.138;2022-08-21T02:13:23;100462.78;;;16.83;100.00
13348;BME280;6743;49.934;9.138;2022-08-21T02:16:00;100460.50;;;16.80;100.00
13348;BME280;6743;49.934;9.138;2022-08-21T02:18:26;100457.19;;;16.78;100.00
13348;BME280;6743;49.934;9.138;2022-08-21T02:20:53;100461.72;;;16.77;100.00
13348;BME280;6743;49.934;9.138;2022-08-21T02:23:19;100457.37;;;16.76;100.00
13348;BME280;6743;49.934;9.138;2022-08-21T02:25:45;100451.00;;;16.77;100.00
13348;BME280;6743;49.934;9.138;2022-08-21T02:28:13;100449.34;;;16.76;100.00
13348;BME280;6743;49.934;9.138;2022-08-21T02:30:43;100453.47;;;16.72;100.00
13348;BME280;6743;49.934;9.138;2022-08-21T02:33:10;100455.31;;;16.72;100.00
13348;BME280;6743;49.934;9.138;2022-08-21T02:35:38;100453.47;;;16.72;100.00
13348;BME280;6743;49.934;9.138;2022-08-21T02:38:10;100432.59;;;16.61;100.00
13348;BME280;6743;49.934;9.138;2022-08-21T02:40:38;100458.41;;;16.75;100.00
13348;BME280;6743;49.934;9.138;2022-08-21T02:43:05;100462.75;;;16.76;100.00
13348;BME280;6743;49.934;9.138;2022-08-21T02:45:32;100451.63;;;16.73;100.00
13348;BME280;6743;49.934;9.138;2022-08-21T02:48:00;100452.00;;;16.70;100.00
13348;BME280;6743;49.934;9.138;2022-08-21T02:50:29;100454.84;;;16.62;100.00
13348;BME280;6743;49.934;9.138;2022-08-21T02:52:56;100454.59;;;16.57;100.00
13348;BME280;6743;49.934;9.138;2022-08-21T02:55:23;100457.66;;;16.53;100.00
13348;BME280;6743;49.934;9.138;2022-08-21T02:57:51;100453.53;;;16.51;100.00
13348;BME280;6743;49.934;9.138;2022-08-21T03:00:18;100461.31;;;16.46;100.00
13348;BME280;6743;49.934;9.138;2022-08-21T03:02:46;100452.88;;;16.42;100.00
13348;BME280;6743;49.934;9.138;2022-08-21T03:05:13;100450.19;;;16.42;100.00
13348;BME280;6743;49.934;9.138;2022-08-21T03:07:41;100449.81;;;16.45;100.00
13348;BME280;6743;49.934;9.138;2022-08-21T03:10:07;100454.56;;;16.50;100.00
13348;BME280;6743;49.934;9.138;2022-08-21T03:12:34;100450.87;;;16.51;100.00
13348;BME280;6743;49.934;9.138;2022-08-21T03:15:00;100450.41;;;16.47;100.00
13348;BME280;6743;49.934;9.138;2022-08-21T03:17:26;100445.25;;;16.46;100.00
13348;BME280;6743;49.934;9.138;2022-08-21T03:19:52;100445.84;;;16.41;100.00
13348;BME280;6743;49.934;9.138;2022-08-21T03:22:19;100443.56;;;16.32;100.00
13348;BME280;6743;49.934;9.138;2022-08-21T03:24:45;100452.44;;;16.39;100.00
13348;BME280;6743;49.934;9.138;2022-08-21T03:27:11;100461.06;;;16.34;100.00
13348;BME280;6743;49.934;9.138;2022-08-21T03:29:38;100456.12;;;16.31;100.00
13348;BME280;6743;49.934;9.138;2022-08-21T03:32:04;100459.38;;;16.27;100.00
13348;BME280;6743;49.934;9.138;2022-08-21T03:34:33;100464.50;;;16.22;100.00
13348;BME280;6743;49.934;9.138;2022-08-21T03:36:59;100463.25;;;16.18;100.00
13348;BME280;6743;49.934;9.138;2022-08-21T03:39:26;100459.28;;;16.13;100.00
13348;BME280;6743;49.934;9.138;2022-08-21T03:41:52;100462.38;;;16.10;100.00
13348;BME280;6743;49.934;9.138;2022-08-21T03:44:19;100463.38;;;16.09;100.00
13348;BME280;6743;49.934;9.138;2022-08-21T03:46:45;100464.22;;;16.10;100.00
13348;BME280;6743;49.934;9.138;2022-08-21T03:49:11;100444.56;;;15.96;100.00
13348;BME280;6743;49.934;9.138;2022-08-21T03:51:38;100462.56;;;16.09;100.00
13348;BME280;6743;49.934;9.138;2022-08-21T03:54:04;100448.06;;;15.97;100.00
13348;BME280;6743;49.934;9.138;2022-08-21T03:56:31;100467.47;;;16.05;100.00
13348;BME280;6743;49.934;9.138;2022-08-21T03:58:57;100476.72;;;16.03;100.00
13348;BME280;6743;49.934;9.138;2022-08-21T04:01:23;100474.03;;;16.03;100.00
13348;BME280;6743;49.934;9.138;2022-08-21T04:03:49;100471.56;;;16.01;100.00
13348;BME280;6743;49.934;9.138;2022-08-21T04:06:15;100473.41;;;16.01;100.00
13348;BME280;6743;49.934;9.138;2022-08-21T04:08:41;100480.59;;;16.00;100.00
13348;BME280;6743;49.934;9.138;2022-08-21T04:11:08;100484.94;;;16.01;100.00
13348;BME280;6743;49.934;9.138;2022-08-21T04:13:36;100479.53;;;15.95;100.00
13348;BME280;6743;49.934;9.138;2022-08-21T04:16:03;100489.00;;;15.97;100.00
13348;BME280;6743;49.934;9.138;2022-08-21T04:18:29;100487.38;;;15.96;100.00
13348;BME280;6743;49.934;9.138;2022-08-21T04:20:56;100490.44;;;15.93;100.00
13348;BME280;6743;49.934;9.138;2022-08-21T04:23:23;100499.03;;;15.89;100.00
13348;BME280;6743;49.934;9.138;2022-08-21T04:25:50;100498.41;;;15.87;100.00
13348;BME280;6743;49.934;9.138;2022-08-21T04:28:17;100497.75;;;15.85;100.00
13348;BME280;6743;49.934;9.138;2022-08-21T04:30:44;100496.94;;;15.84;100.00
13348;BME280;6743;49.934;9.138;2022-08-21T04:33:10;100503.69;;;15.80;100.00
13348;BME280;6743;49.934;9.138;2022-08-21T04:35:36;100506.13;;;15.75;100.00
13348;BME280;6743;49.934;9.138;2022-08-21T04:38:02;100505.13;;;15.76;100.00
13348;BME280;6743;49.934;9.138;2022-08-21T04:40:28;100510.84;;;15.73;100.00
13348;BME280;6743;49.934;9.138;2022-08-21T04:42:56;100507.16;;;15.74;100.00
13348;BME280;6743;49.934;9.138;2022-08-21T04:45:26;100517.00;;;15.73;100.00
13348;BME280;6743;49.934;9.138;2022-08-21T04:47:56;100504.78;;;15.64;100.00
13348;BME280;6743;49.934;9.138;2022-08-21T04:50:26;100509.69;;;15.61;100.00
13348;BME280;6743;49.934;9.138;2022-08-21T04:52:53;100535.91;;;15.72;100.00
13348;BME280;6743;49.934;9.138;2022-08-21T04:55:20;100538.34;;;15.67;100.00
13348;BME280;6743;49.934;9.138;2022-08-21T04:57:47;100544.06;;;15.64;100.00
13348;BME280;6743;49.934;9.138;2022-08-21T05:00:18;100547.56;;;15.64;100.00
13348;BME280;6743;49.934;9.138;2022-08-21T05:02:44;100544.06;;;15.64;100.00
13348;BME280;6743;49.934;9.138;2022-08-21T05:05:13;100544.72;;;15.66;100.00
13348;BME280;6743;49.934;9.138;2022-08-21T05:07:41;100547.38;;;15.66;100.00
13348;BME280;6743;49.934;9.138;2022-08-21T05:10:08;100548.03;;;15.68;100.00
13348;BME280;6743;49.934;9.138;2022-08-21T05:12:35;100555.03;;;15.69;100.00
13348;BME280;6743;49.934;9.138;2022-08-21T05:15:01;100551.31;;;15.70;100.00
13348;BME280;6743;49.934;9.138;2022-08-21T05:17:27;100552.63;;;15.74;100.00
13348;BME280;6743;49.934;9.138;2022-08-21T05:19:54;100555.94;;;15.76;100.00
13348;BME280;6743;49.934;9.138;2022-08-21T05:22:22;100545.78;;;15.71;100.00
13348;BME280;6743;49.934;9.138;2022-08-21T05:24:49;100551.84;;;15.80;100.00
13348;BME280;6743;49.934;9.138;2022-08-21T05:27:15;100548.81;;;15.83;100.00
13348;BME280;6743;49.934;9.138;2022-08-21T05:29:42;100555.41;;;15.87;100.00
13348;BME280;6743;49.934;9.138;2022-08-21T05:32:09;100549.88;;;15.89;100.00
13348;BME280;6743;49.934;9.138;2022-08-21T05:34:35;100559.16;;;15.93;100.00
13348;BME280;6743;49.934;9.138;2022-08-21T05:37:01;100554.28;;;15.96;100.00
13348;BME280;6743;49.934;9.138;2022-08-21T05:39:28;100560.88;;;16.00;100.00
13348;BME280;6743;49.934;9.138;2022-08-21T05:41:54;100557.84;;;16.03;100.00
13348;BME280;6743;49.934;9.138;2022-08-21T05:44:20;100560.09;;;16.06;100.00
13348;BME280;6743;49.934;9.138;2022-08-21T05:46:46;100563.84;;;16.12;100.00
13348;BME280;6743;49.934;9.138;2022-08-21T05:49:12;100554.25;;;16.18;100.00
13348;BME280;6743;49.934;9.138;2022-08-21T05:51:40;100554.50;;;16.23;100.00
13348;BME280;6743;49.934;9.138;2022-08-21T05:54:06;100534.09;;;16.22;100.00
13348;BME280;6743;49.934;9.138;2022-08-21T05:56:33;100549.22;;;16.36;100.00
13348;BME280;6743;49.934;9.138;2022-08-21T05:58:59;100548.81;;;16.39;100.00
13348;BME280;6743;49.934;9.138;2022-08-21T06:01:26;100550.28;;;16.41;100.00
13348;BME280;6743;49.934;9.138;2022-08-21T06:03:52;100551.34;;;16.47;100.00
13348;BME280;6743;49.934;9.138;2022-08-21T06:06:18;100547.28;;;16.51;100.00
13348;BME280;6743;49.934;9.138;2022-08-21T06:08:44;100547.88;;;16.53;100.00
13348;BME280;6743;49.934;9.138;2022-08-21T06:11:10;100550.00;;;16.58;100.00
13348;BME280;6743;49.934;9.138;2022-08-21T06:13:37;100553.13;;;16.61;100.00
13348;BME280;6743;49.934;9.138;2022-08-21T06:16:06;100540.19;;;16.65;100.00
13348;BME280;6743;49.934;9.138;2022-08-21T06:18:33;100552.34;;;16.67;100.00
13348;BME280;6743;49.934;9.138;2022-08-21T06:20:59;100544.56;;;16.72;100.00
13348;BME280;6743;49.934;9.138;2022-08-21T06:23:25;100534.22;;;16.69;100.00
13348;BME280;6743;49.934;9.138;2022-08-21T06:25:51;100553.25;;;16.81;100.00
13348;BME280;6743;49.934;9.138;2022-08-21T06:28:17;100548.97;;;16.86;100.00
13348;BME280;6743;49.934;9.138;2022-08-21T06:30:44;100554.09;;;16.88;100.00
13348;BME280;6743;49.934;9.138;2022-08-21T06:33:10;100535.94;;;16.83;100.00
13348;BME280;6743;49.934;9.138;2022-08-21T06:35:36;100550.25;;;16.97;100.00
13348;BME280;6743;49.934;9.138;2022-08-21T06:38:02;100555.00;;;17.02;100.00
13348;BME280;6743;49.934;9.138;2022-08-21T06:40:29;100551.31;;;17.09;100.00
13348;BME280;6743;49.934;9.138;2022-08-21T06:42:56;100552.41;;;17.15;100.00
13348;BME280;6743;49.934;9.138;2022-08-21T06:45:23;100548.09;;;17.20;100.00
13348;BME280;6743;49.934;9.138;2022-08-21T06:47:49;100552.44;;;17.28;100.00
13348;BME280;6743;49.934;9.138;2022-08-21T06:50:15;100554.34;;;17.41;100.00
13348;BME280;6743;49.934;9.138;2022-08-21T06:52:41;100558.72;;;17.55;100.00
13348;BME280;6743;49.934;9.138;2022-08-21T06:55:09;100553.78;;;17.65;100.00
13348;BME280;6743;49.934;9.138;2022-08-21T06:57:35;100547.00;;;17.69;100.00
13348;BME280;6743;49.934;9.138;2022-08-21T07:00:02;100552.59;;;17.81;100.00
13348;BME280;6743;49.934;9.138;2022-08-21T07:02:29;100556.75;;;17.90;100.00
13348;BME280;6743;49.934;9.138;2022-08-21T07:04:57;100551.38;;;17.96;100.00
13348;BME280;6743;49.934;9.138;2022-08-21T07:07:23;100552.81;;;17.99;100.00
13348;BME280;6743;49.934;9.138;2022-08-21T07:09:50;100552.59;;;18.00;100.00
13348;BME280;6743;49.934;9.138;2022-08-21T07:12:16;100545.81;;;18.04;100.00
13348;BME280;6743;49.934;9.138;2022-08-21T07:14:42;100544.16;;;18.10;100.00
13348;BME280;6743;49.934;9.138;2022-08-21T07:17:08;100539.59;;;18.10;100.00
13348;BME280;6743;49.934;9.138;2022-08-21T07:19:34;100534.84;;;18.12;100.00
13348;BME280;6743;49.934;9.138;2022-08-21T07:22:02;100533.59;;;18.15;100.00
13348;BME280;6743;49.934;9.138;2022-08-21T07:24:28;100534.22;;;18.17;100.00
13348;BME280;6743;49.934;9.138;2022-08-21T07:26:54;100534.81;;;18.19;100.00
13348;BME280;6743;49.934;9.138;2022-08-21T07:29:21;100532.13;;;18.26;100.00
13348;BME280;6743;49.934;9.138;2022-08-21T07:31:46;100535.44;;;18.28;100.00
13348;BME280;6743;49.934;9.138;2022-08-21T07:34:13;100534.03;;;18.32;100.00
13348;BME280;6743;49.934;9.138;2022-08-21T07:36:39;100538.31;;;18.39;100.00
13348;BME280;6743;49.934;9.138;2022-08-21T07:39:06;100535.84;;;18.44;100.00
13348;BME280;6743;49.934;9.138;2022-08-21T07:41:33;100531.91;;;18.47;100.00
13348;BME280;6743;49.934;9.138;2022-08-21T07:44:00;100519.53;;;18.53;100.00
13348;BME280;6743;49.934;9.138;2022-08-21T07:46:27;100522.63;;;18.56;100.00
13348;BME280;6743;49.934;9.138;2022-08-21T07:48:53;100531.91;;;18.60;100.00
13348;BME280;6743;49.934;9.138;2022-08-21T07:51:23;100531.09;;;18.66;100.00
13348;BME280;6743;49.934;9.138;2022-08-21T07:53:54;100529.22;;;18.67;100.00
13348;BME280;6743;49.934;9.138;2022-08-21T07:56:21;100526.09;;;18.76;100.00
13348;BME280;6743;49.934;9.138;2022-08-21T07:58:48;100521.50;;;18.83;100.00
13348;BME280;6743;49.934;9.138;2022-08-21T08:01:14;100523.97;;;18.92;100.00
13348;BME280;6743;49.934;9.138;2022-08-21T08:03:40;100514.25;;;18.91;100.00
13348;BME280;6743;49.934;9.138;2022-08-21T08:06:06;100524.34;;;19.02;100.00
13348;BME280;6743;49.934;9.138;2022-08-21T08:08:37;100517.31;;;19.07;100.00
13348;BME280;6743;49.934;9.138;2022-08-21T08:11:03;100511.69;;;19.09;100.00
13348;BME280;6743;49.934;9.138;2022-08-21T08:13:30;100507.94;;;19.16;100.00
13348;BME280;6743;49.934;9.138;2022-08-21T08:15:56;100498.19;;;19.22;100.00
13348;BME280;6743;49.934;9.138;2022-08-21T08:18:22;100501.87;;;19.27;100.00
13348;BME280;6743;49.934;9.138;2022-08-21T08:20:48;100507.22;;;19.34;100.00
13348;BME280;6743;49.934;9.138;2022-08-21T08:23:14;100508.22;;;19.40;100.00
13348;BME280;6743;49.934;9.138;2022-08-21T08:25:41;100500.53;;;19.43;100.00
13348;BME280;6743;49.934;9.138;2022-08-21T08:28:07;100502.41;;;19.49;100.00
13348;BME280;6743;49.934;9.138;2022-08-21T08:30:34;100497.41;;;19.53;100.00
13348;BME280;6743;49.934;9.138;2022-08-21T08:33:00;100494.87;;;19.58;100.00
13348;BME280;6743;49.934;9.138;2022-08-21T08:35:26;100492.13;;;19.64;100.00
13348;BME280;6743;49.934;9.138;2022-08-21T08:37:54;100495.03;;;19.70;100.00
13348;BME280;6743;49.934;9.138;2022-08-21T08:40:27;100488.75;;;19.76;100.00
13348;BME280;6743;49.934;9.138;2022-08-21T08:42:56;100481.66;;;19.81;100.00
13348;BME280;6743;49.934;9.138;2022-08-21T08:45:25;100478.31;;;19.86;100.00
13348;BME280;6743;49.934;9.138;2022-08-21T08:47:55;100485.28;;;19.93;100.00
13348;BME280;6743;49.934;9.138;2022-08-21T08:50:28;100475.50;;;19.99;100.00
13348;BME280;6743;49.934;9.138;2022-08-21T08:53:02;100463.69;;;20.00;100.00
13348;BME280;6743;49.934;9.138;2022-08-21T08:55:33;100471.06;;;20.11;100.00
13348;BME280;6743;49.934;9.138;2022-08-21T08:58:01;100477.22;;;20.18;100.00
13348;BME280;6743;49.934;9.138;2022-08-21T09:00:31;100472.56;;;20.25;100.00
13348;BME280;6743;49.934;9.138;2022-08-21T09:03:00;100475.59;;;20.35;100.00
13348;BME280;6743;49.934;9.138;2022-08-21T09:05:28;100477.19;;;20.43;100.00
13348;BME280;6743;49.934;9.138;2022-08-21T09:08:11;100473.38;;;20.51;100.00
13348;BME280;6743;49.934;9.138;2022-08-21T09:10:48;100468.50;;;20.59;100.00
13348;BME280;6743;49.934;9.138;2022-08-21T09:13:21;100464.69;;;20.67;100.00
13348;BME280;6743;49.934;9.138;2022-08-21T09:15:54;100468.28;;;20.79;100.00
13348;BME280;6743;49.934;9.138;2022-08-21T09:18:32;100460.44;;;20.89;100.00
13348;BME280;6743;49.934;9.138;2022-08-21T09:21:11;100456.63;;;20.97;100.00
13348;BME280;6743;49.934;9.138;2022-08-21T09:23:49;100444.34;;;21.01;100.00
13348;BME280;6743;49.934;9.138;2022-08-21T09:26:21;100454.50;;;21.17;100.00
13348;BME280;6743;49.934;9.138;2022-08-21T09:28:54;100449.38;;;21.27;100.00
13348;BME280;6743;49.934;9.138;2022-08-21T09:31:23;100421.59;;;21.27;100.00
13348;BME280;6743;49.934;9.138;2022-08-21T09:33:57;100424.19;;;21.33;100.00
13348;BME280;6743;49.934;9.138;2022-08-21T09:36:25;100435.16;;;21.50;100.00
13348;BME280;6743;49.934;9.138;2022-08-21T09:38:55;100441.47;;;21.55;100.00
13348;BME280;6743;49.934;9.138;2022-08-21T09:41:26;100433.50;;;21.60;100.00
13348;BME280;6743;49.934;9.138;2022-08-21T09:43:53;100440.06;;;21.65;100.00
13348;BME280;6743;49.934;9.138;2022-08-21T09:46:21;100437.06;;;21.84;100.00
13348;BME280;6743;49.934;9.138;2022-08-21T09:48:50;100443.41;;;21.90;100.00
13348;BME280;6743;49.934;9.138;2022-08-21T09:51:19;100437.78;;;21.91;100.00
13348;BME280;6743;49.934;9.138;2022-08-21T09:53:48;100445.19;;;21.96;100.00
13348;BME280;6743;49.934;9.138;2022-08-21T09:56:31;100441.78;;;22.00;100.00
13348;BME280;6743;49.934;9.138;2022-08-21T09:59:20;100446.50;;;22.05;100.00
13348;BME280;6743;49.934;9.138;2022-08-21T10:01:48;100435.19;;;22.20;100.00
13348;BME280;6743;49.934;9.138;2022-08-21T10:04:20;100442.84;;;22.23;100.00
13348;BME280;6743;49.934;9.138;2022-08-21T10:06:47;100439.41;;;22.27;100.00
13348;BME280;6743;49.934;9.138;2022-08-21T10:09:16;100432.00;;;22.34;100.00
13348;BME280;6743;49.934;9.138;2022-08-21T10:11:49;100438.34;;;22.40;100.00
13348;BME280;6743;49.934;9.138;2022-08-21T10:14:25;100434.09;;;22.44;100.00
13348;BME280;6743;49.934;9.138;2022-08-21T10:17:04;100436.22;;;22.54;100.00
13348;BME280;6743;49.934;9.138;2022-08-21T10:19:38;100423.75;;;22.53;100.00
13348;BME280;6743;49.934;9.138;2022-08-21T10:22:20;100430.53;;;22.67;100.00
13348;BME280;6743;49.934;9.138;2022-08-21T10:24:55;100423.69;;;22.76;100.00
13348;BME280;6743;49.934;9.138;2022-08-21T10:27:31;100423.75;;;22.93;100.00
13348;BME280;6743;49.934;9.138;2022-08-21T10:30:04;100421.16;;;22.98;100.00
13348;BME280;6743;49.934;9.138;2022-08-21T10:32:48;100418.41;;;23.09;100.00
13348;BME280;6743;49.934;9.138;2022-08-21T10:35:22;100420.59;;;23.12;100.00
13348;BME280;6743;49.934;9.138;2022-08-21T10:38:01;100418.25;;;23.16;100.00
13348;BME280;6743;49.934;9.138;2022-08-21T10:40:31;100409.69;;;23.07;100.00
13348;BME280;6743;49.934;9.138;2022-08-21T10:43:14;100425.19;;;23.12;100.00
13348;BME280;6743;49.934;9.138;2022-08-21T10:45:51;100414.62;;;23.10;100.00
13348;BME280;6743;49.934;9.138;2022-08-21T10:48:25;100423.47;;;23.06;100.00
13348;BME280;6743;49.934;9.138;2022-08-21T10:50:57;100418.78;;;23.01;100.00
13348;BME280;6743;49.934;9.138;2022-08-21T10:53:40;100416.31;;;23.00;100.00
13348;BME280;6743;49.934;9.138;2022-08-21T10:56:14;100414.19;;;23.02;100.00
13348;BME280;6743;49.934;9.138;2022-08-21T10:58:47;100411.09;;;23.10;100.00
13348;BME280;6743;49.934;9.138;2022-08-21T11:01:19;100400.03;;;23.11;100.00
13348;BME280;6743;49.934;9.138;2022-08-21T11:03:50;100392.25;;;23.15;100.00
13348;BME280;6743;49.934;9.138;2022-08-21T11:06:20;100403.47;;;23.24;100.00
13348;BME280;6743;49.934;9.138;2022-08-21T11:08:51;100404.66;;;23.28;100.00
13348;BME280;6743;49.934;9.138;2022-08-21T11:11:24;100385.47;;;23.29;100.00
13348;BME280;6743;49.934;9.138;2022-08-21T11:13:54;100378.16;;;23.30;100.00
13348;BME280;6743;49.934;9.138;2022-08-21T11:16:26;100386.19;;;23.41;100.00
13348;BME280;6743;49.934;9.138;2022-08-21T11:19:00;100385.00;;;23.49;100.00
13348;BME280;6743;49.934;9.138;2022-08-21T11:21:35;100384.00;;;23.55;100.00
13348;BME280;6743;49.934;9.138;2022-08-21T11:24:17;100374.66;;;23.63;100.00
13348;BME280;6743;49.934;9.138;2022-08-21T11:26:51;100373.72;;;23.74;100.00
13348;BME280;6743;49.934;9.138;2022-08-21T11:29:23;100361.84;;;23.75;100.00
13348;BME280;6743;49.934;9.138;2022-08-21T11:32:04;100367.66;;;23.83;100.00
13348;BME280;6743;49.934;9.138;2022-08-21T11:34:41;100368.78;;;23.87;100.00
13348;BME280;6743;49.934;9.138;2022-08-21T11:37:18;100363.47;;;23.92;100.00
13348;BME280;6743;49.934;9.138;2022-08-21T11:39:52;100367.69;;;24.05;100.00
13348;BME280;6743;49.934;9.138;2022-08-21T11:42:28;100363.97;;;24.11;100.00
13348;BME280;6743;49.934;9.138;2022-08-21T11:45:07;100373.22;;;24.15;100.00
13348;BME280;6743;49.934;9.138;2022-08-21T11:47:48;100372.25;;;24.21;100.00
13348;BME280;6743;49.934;9.138;2022-08-21T11:50:21;100380.19;;;24.28;100.00
13348;BME280;6743;49.934;9.138;2022-08-21T11:52:51;100376.75;;;24.32;97.64
13348;BME280;6743;49.934;9.138;2022-08-21T11:55:28;100368.87;;;24.31;98.13
13348;BME280;6743;49.934;9.138;2022-08-21T11:57:59;100366.25;;;24.41;95.86
13348;BME280;6743;49.934;9.138;2022-08-21T12:00:30;100360.59;;;24.43;95.98
13348;BME280;6743;49.934;9.138;2022-08-21T12:03:05;100360.06;;;24.41;97.17
13348;BME280;6743;49.934;9.138;2022-08-21T12:05:36;100357.34;;;24.41;97.11
13348;BME280;6743;49.934;9.138;2022-08-21T12:08:06;100360.94;;;24.46;97.94
13348;BME280;6743;49.934;9.138;2022-08-21T12:10:40;100347.84;;;24.43;96.21
13348;BME280;6743;49.934;9.138;2022-08-21T12:13:09;100352.47;;;24.43;96.50
13348;BME280;6743;49.934;9.138;2022-08-21T12:18:05;100343.41;;;24.32;91.39
13348;BME280;6743;49.934;9.138;2022-08-21T12:20:38;100341.81;;;24.36;91.46
13348;BME280;6743;49.934;9.138;2022-08-21T12:23:23;100346.41;;;24.36;91.50
13348;BME280;6743;49.934;9.138;2022-08-21T12:26:02;100344.28;;;24.38;91.07
13348;BME280;6743;49.934;9.138;2022-08-21T12:28:30;100339.97;;;24.42;95.95
13348;BME280;6743;49.934;9.138;2022-08-21T12:30:57;100341.38;;;24.44;89.69
13348;BME280;6743;49.934;9.138;2022-08-21T12:33:26;100333.81;;;24.46;89.93
13348;BME280;6743;49.934;9.138;2022-08-21T12:36:04;100330.91;;;24.53;88.05
13348;BME280;6743;49.934;9.138;2022-08-21T12:38:33;100333.41;;;24.59;90.27
13348;BME280;6743;49.934;9.138;2022-08-21T12:41:09;100325.84;;;24.61;92.22
13348;BME280;6743;49.934;9.138;2022-08-21T12:43:39;100333.19;;;24.66;85.10
13348;BME280;6743;49.934;9.138;2022-08-21T12:46:14;100317.53;;;24.73;88.64
13348;BME280;6743;49.934;9.138;2022-08-21T12:48:45;100322.75;;;24.80;86.75
13348;BME280;6743;49.934;9.138;2022-08-21T12:51:15;100315.19;;;24.82;85.64
13348;BME280;6743;49.934;9.138;2022-08-21T12:53:45;100328.37;;;24.95;86.56
13348;BME280;6743;49.934;9.138;2022-08-21T12:56:16;100311.00;;;24.96;84.76
13348;BME280;6743;49.934;9.138;2022-08-21T12:58:45;100323.00;;;25.05;79.72
13348;BME280;6743;49.934;9.138;2022-08-21T13:01:17;100327.12;;;25.07;80.04